Time;durP1;ratioP1;P1;durP2;ratioP2;P2;SDS_P1;SDS_P2;PMS_P1;PMS_P2;Temp;Humidity;BMP_temperature;BMP_pressure;BME280_temperature;BME280_humidity;BME280_pressure;Samples;Min_cycle;Max_cycle;Signal;HPM_P1;HPM_P2
2023/12/07 00:00:03;;;;;;;0.37;0.30;;;;;;;-0.09;100.00;98398.31;4469011;32;20684;-76
2023/12/07 00:02:32;;;;;;;0.37;0.37;;;;;;;-0.02;100.00;98396.25;4469043;32;20537;-76
2023/12/07 00:05:00;;;;;;;0.65;0.60;;;;;;;-0.06;100.00;98399.87;4468835;32;20156;-76
2023/12/07 00:07:28;;;;;;;1.08;0.70;;;;;;;-0.09;100.00;98408.63;4469114;32;20085;-76
2023/12/07 00:09:55;;;;;;;0.70;0.57;;;;;;;-0.06;100.00;98407.59;4469108;32;20100;-76
2023/12/07 00:12:24;;;;;;;1.98;0.93;;;;;;;-0.06;100.00;98403.31;4468915;32;20119;-76
2023/12/07 00:14:52;;;;;;;1.52;0.93;;;;;;;-0.16;100.00;98409.03;4469000;32;20096;-76
2023/12/07 00:17:20;;;;;;;2.20;1.00;;;;;;;-0.19;100.00;98402.28;4468457;32;20093;-76
2023/12/07 00:19:50;;;;;;;1.75;0.90;;;;;;;-0.17;100.00;98402.19;4469072;32;20135;-76
2023/12/07 00:22:18;;;;;;;2.37;1.08;;;;;;;-0.23;100.00;98406.75;4468768;32;20101;-76
2023/12/07 00:24:46;;;;;;;1.65;0.93;;;;;;;-0.23;100.00;98409.34;4468819;32;20569;-76
2023/12/07 00:27:13;;;;;;;1.98;1.23;;;;;;;-0.20;100.00;98414.31;4468634;32;20081;-76
2023/12/07 00:29:41;;;;;;;2.05;1.30;;;;;;;-0.26;100.00;98412.06;4468574;32;20108;-76
2023/12/07 00:32:08;;;;;;;1.73;1.48;;;;;;;-0.25;100.00;98406.00;4468689;32;20100;-76
2023/12/07 00:34:38;;;;;;;2.28;1.65;;;;;;;-0.24;100.00;98404.28;4468779;32;20097;-76
2023/12/07 00:37:05;;;;;;;3.55;1.87;;;;;;;-0.23;100.00;98406.75;4468498;32;20415;-76
2023/12/07 00:39:33;;;;;;;1.58;1.30;;;;;;;-0.22;100.00;98408.41;4468743;32;20125;-76
2023/12/07 00:42:04;;;;;;;3.42;1.98;;;;;;;-0.22;100.00;98405.84;4468567;32;20600;-76
2023/12/07 00:44:32;;;;;;;3.78;1.75;;;;;;;-0.24;100.00;98410.25;4468449;32;20096;-76
2023/12/07 00:47:00;;;;;;;2.53;1.67;;;;;;;-0.29;100.00;98406.22;4468521;32;20123;-76
2023/12/07 00:49:28;;;;;;;3.92;1.85;;;;;;;-0.23;100.00;98409.34;4468588;32;20104;-76
2023/12/07 00:51:55;;;;;;;2.37;1.65;;;;;;;-0.20;100.00;98408.31;4468550;32;20119;-76
2023/12/07 00:54:23;;;;;;;3.55;1.30;;;;;;;-0.30;100.00;98405.41;4468316;32;20089;-76
2023/12/07 00:56:51;;;;;;;2.08;1.33;;;;;;;-0.25;100.00;98411.12;4468342;32;20093;-76
2023/12/07 00:59:19;;;;;;;2.42;1.50;;;;;;;-0.24;100.00;98410.25;4468262;32;20209;-76
2023/12/07 01:01:46;;;;;;;2.83;1.52;;;;;;;-0.26;100.00;98409.50;4470327;32;20114;-76
2023/12/07 01:04:16;;;;;;;3.00;1.48;;;;;;;-0.27;100.00;98414.69;4470369;32;20119;-76
2023/12/07 01:06:43;;;;;;;2.15;1.20;;;;;;;-0.30;100.00;98405.41;4470171;32;20116;-76
2023/12/07 01:09:13;;;;;;;3.28;1.85;;;;;;;-0.35;100.00;98402.22;4470284;32;20115;-76
2023/12/07 01:11:41;;;;;;;2.22;1.60;;;;;;;-0.31;100.00;98406.31;4470245;32;20100;-76
2023/12/07 01:14:08;;;;;;;3.15;1.90;;;;;;;-0.36;100.00;98403.97;4470150;32;20089;-75
2023/12/07 01:16:37;;;;;;;1.50;0.80;;;;;;;-0.32;100.00;98398.66;4470078;32;20172;-76
2023/12/07 01:19:06;;;;;;;2.12;1.50;;;;;;;-0.41;100.00;98400.81;4470034;32;20528;-76
2023/12/07 01:21:35;;;;;;;2.47;1.40;;;;;;;-0.44;100.00;98393.25;4401770;32;20484;-76
2023/12/07 01:24:03;;;;;;;1.92;1.55;;;;;;;-0.37;100.00;98388.59;4470074;32;20093;-76
2023/12/07 01:26:43;;;;;;;4.50;1.87;;;;;;;-0.40;100.00;98386.19;4469923;32;20164;-76
2023/12/07 01:29:12;;;;;;;1.67;1.33;;;;;;;-0.42;100.00;98388.84;4470204;32;20109;-76
2023/12/07 01:31:40;;;;;;;3.67;1.70;;;;;;;-0.40;100.00;98383.59;4470128;32;20783;-76
2023/12/07 01:34:09;;;;;;;3.65;1.98;;;;;;;-0.45;100.00;98386.41;4470081;32;20104;-75
2023/12/07 01:36:36;;;;;;;3.90;2.08;;;;;;;-0.48;100.00;98389.16;4469941;32;20434;-75
2023/12/07 01:39:05;;;;;;;2.95;2.08;;;;;;;-0.51;100.00;98394.44;4470142;32;20386;-75
2023/12/07 01:41:33;;;;;;;2.33;1.52;;;;;;;-0.52;100.00;98389.38;4470377;32;20115;-75
2023/12/07 01:44:01;;;;;;;4.97;2.17;;;;;;;-0.47;100.00;98395.13;4469841;32;20119;-75
2023/12/07 01:46:29;;;;;;;1.85;1.50;;;;;;;-0.50;100.00;98392.69;4470086;32;20076;-75
2023/12/07 01:48:57;;;;;;;2.40;1.52;;;;;;;-0.50;100.00;98388.41;4469670;32;20101;-75
2023/12/07 01:51:25;;;;;;;2.65;1.60;;;;;;;-0.52;100.00;98392.78;4469977;32;20172;-75
2023/12/07 01:53:52;;;;;;;3.95;2.15;;;;;;;-0.46;100.00;98383.94;4469887;32;20097;-75
2023/12/07 01:56:23;;;;;;;3.62;1.70;;;;;;;-0.43;100.00;98384.59;4469952;32;20124;-76
2023/12/07 01:58:51;;;;;;;2.97;1.67;;;;;;;-0.49;100.00;98382.31;4469741;32;20405;-75
2023/12/07 02:01:19;;;;;;;3.12;1.65;;;;;;;-0.47;100.00;98377.09;4469852;32;20439;-76
2023/12/07 02:03:47;;;;;;;2.45;1.65;;;;;;;-0.48;100.00;98388.31;4469820;32;20127;-75
2023/12/07 02:06:15;;;;;;;2.35;1.12;;;;;;;-0.50;100.00;98387.56;4468483;32;20101;-75
2023/12/07 02:08:43;;;;;;;1.95;1.37;;;;;;;-0.47;100.00;98390.81;4469692;32;20151;-75
2023/12/07 02:11:11;;;;;;;2.85;1.80;;;;;;;-0.59;100.00;98389.69;4469514;32;20157;-75
2023/12/07 02:13:40;;;;;;;3.78;1.90;;;;;;;-0.56;100.00;98386.97;4469736;32;20096;-75
2023/12/07 02:16:39;;;;;;;3.35;1.75;;;;;;;-0.51;100.00;98383.34;4469617;32;20152;-75
2023/12/07 02:19:42;;;;;;;4.28;2.17;;;;;;;-0.52;100.00;98379.91;4452369;32;20138;-75
2023/12/07 02:22:17;;;;;;;3.85;2.30;;;;;;;-0.51;100.00;98380.75;4453145;32;20111;-75
2023/12/07 02:25:09;;;;;;;3.00;2.10;;;;;;;-0.51;100.00;98378.19;4452978;32;20119;-75
2023/12/07 02:27:39;;;;;;;3.95;2.15;;;;;;;-0.47;100.00;98377.94;4453802;32;20093;-76
2023/12/07 02:30:08;;;;;;;4.85;2.33;;;;;;;-0.52;100.00;98379.09;4466752;32;20131;-76
2023/12/07 02:32:39;;;;;;;4.12;2.75;;;;;;;-0.48;100.00;98375.47;4470027;32;20165;-76
2023/12/07 02:35:09;;;;;;;3.33;2.00;;;;;;;-0.56;100.00;98380.97;4469454;32;20085;-76
2023/12/07 02:37:44;;;;;;;5.78;3.33;;;;;;;-0.54;100.00;98385.13;4468280;32;20111;-75
2023/12/07 02:40:17;;;;;;;5.65;2.67;;;;;;;-0.53;100.00;98378.25;4469641;32;20085;-75
2023/12/07 02:42:45;;;;;;;3.67;2.22;;;;;;;-0.49;100.00;98384.06;4468567;32;20112;-76
2023/12/07 02:45:12;;;;;;;5.35;3.00;;;;;;;-0.49;100.00;98384.06;4469634;32;20084;-75
2023/12/07 02:47:40;;;;;;;4.05;2.58;;;;;;;-0.58;100.00;98386.19;4469645;32;21092;-75
2023/12/07 02:50:07;;;;;;;4.57;2.80;;;;;;;-0.56;100.00;98378.37;4469455;32;20097;-75
2023/12/07 02:52:35;;;;;;;6.78;3.35;;;;;;;-0.54;100.00;98382.56;4469591;32;20092;-75
2023/12/07 02:55:03;;;;;;;4.12;2.60;;;;;;;-0.58;100.00;98381.03;4469716;32;20089;-74
2023/12/07 02:57:32;;;;;;;5.12;3.25;;;;;;;-0.60;100.00;98382.88;4469488;32;20112;-74
2023/12/07 03:00:03;;;;;;;5.45;3.55;;;;;;;-0.63;100.00;98383.03;4469042;32;20146;-75
2023/12/07 03:02:31;;;;;;;8.38;4.03;;;;;;;-0.65;100.00;98384.84;4469597;32;20172;-75
2023/12/07 03:04:58;;;;;;;5.57;3.40;;;;;;;-0.55;100.00;98380.88;4469618;32;20093;-75
2023/12/07 03:07:25;;;;;;;8.65;4.10;;;;;;;-0.64;100.00;98383.91;4469555;32;20107;-75
2023/12/07 03:09:52;;;;;;;6.43;3.87;;;;;;;-0.71;100.00;98385.16;4469426;32;20093;-75
2023/12/07 03:12:20;;;;;;;6.62;4.12;;;;;;;-0.65;100.00;98391.72;4469359;32;20180;-75
2023/12/07 03:14:48;;;;;;;8.13;4.25;;;;;;;-0.61;100.00;98393.25;4469485;32;20115;-75
2023/12/07 03:17:15;;;;;;;7.22;4.15;;;;;;;-0.59;100.00;98396.56;4469106;32;20521;-75
2023/12/07 03:19:43;;;;;;;6.35;3.55;;;;;;;-0.55;100.00;98395.50;4469686;32;20105;-75
2023/12/07 03:22:13;;;;;;;6.07;3.90;;;;;;;-0.59;100.00;98394.84;4469420;32;20092;-75
2023/12/07 03:24:45;;;;;;;6.65;3.35;;;;;;;-0.58;100.00;98395.66;4469302;32;20088;-75
2023/12/07 03:27:13;;;;;;;6.20;4.03;;;;;;;-0.57;100.00;98405.88;4469262;32;20085;-75
2023/12/07 03:29:40;;;;;;;7.47;4.12;;;;;;;-0.59;100.00;98399.13;4469168;32;20097;-75
2023/12/07 03:32:07;;;;;;;8.88;3.45;;;;;;;-0.56;100.00;98409.25;4469269;32;20157;-75
2023/12/07 03:34:34;;;;;;;5.20;3.67;;;;;;;-0.65;100.00;98405.44;4469345;32;20084;-75
2023/12/07 03:37:03;;;;;;;7.25;4.47;;;;;;;-0.61;100.00;98404.34;4469078;32;20092;-75
2023/12/07 03:39:32;;;;;;;8.15;4.60;;;;;;;-0.62;100.00;98401.84;4469145;32;20101;-75
2023/12/07 03:42:00;;;;;;;5.93;3.72;;;;;;;-0.69;100.00;98403.91;4469192;32;20097;-75
2023/12/07 03:44:27;;;;;;;8.60;4.55;;;;;;;-0.66;100.00;98406.31;4469454;32;20088;-75
2023/12/07 03:46:55;;;;;;;8.68;4.12;;;;;;;-0.68;100.00;98400.44;4469190;32;20166;-75
2023/12/07 03:49:23;;;;;;;6.25;3.42;;;;;;;-0.73;100.00;98392.09;4468919;32;20097;-74
2023/12/07 03:51:50;;;;;;;7.90;4.35;;;;;;;-0.74;100.00;98408.47;4469405;32;20588;-75
2023/12/07 03:54:17;;;;;;;11.63;4.78;;;;;;;-0.72;100.00;98401.50;4469324;32;20096;-74
2023/12/07 03:56:45;;;;;;;8.40;4.57;;;;;;;-0.67;100.00;98404.66;4469061;32;20105;-74
2023/12/07 03:59:14;;;;;;;6.75;4.25;;;;;;;-0.63;100.00;98410.50;4469041;32;20540;-75
2023/12/07 04:01:41;;;;;;;7.05;3.80;;;;;;;-0.63;100.00;98407.94;4468929;32;20158;-75
2023/12/07 04:04:09;;;;;;;9.18;4.22;;;;;;;-0.67;100.00;98412.38;4469153;32;20130;-74
2023/12/07 04:06:36;;;;;;;11.32;5.25;;;;;;;-0.65;100.00;98413.16;4468854;32;20123;-74
2023/12/07 04:09:04;;;;;;;9.68;5.18;;;;;;;-0.60;100.00;98412.91;4468842;32;20101;-74
2023/12/07 04:11:31;;;;;;;8.38;4.75;;;;;;;-0.61;100.00;98416.37;4468636;32;20123;-74
2023/12/07 04:13:59;;;;;;;9.25;4.55;;;;;;;-0.59;100.00;98415.41;4468788;32;20084;-74
2023/12/07 04:16:27;;;;;;;10.30;4.68;;;;;;;-0.59;100.00;98420.56;4467480;32;20168;-74
2023/12/07 04:18:55;;;;;;;9.32;4.22;;;;;;;-0.62;100.00;98427.56;4453257;32;20154;-74
2023/12/07 04:21:25;;;;;;;9.98;5.65;;;;;;;-0.62;100.00;98431.00;4453121;32;20084;-74
2023/12/07 04:23:53;;;;;;;7.00;4.20;;;;;;;-0.69;100.00;98437.34;4453226;32;20158;-74
2023/12/07 04:26:22;;;;;;;7.80;4.10;;;;;;;-0.72;100.00;98434.94;4452948;32;20133;-74
2023/12/07 04:28:49;;;;;;;7.95;4.82;;;;;;;-0.66;100.00;98442.34;4457617;32;20156;-74
2023/12/07 04:31:16;;;;;;;5.53;3.40;;;;;;;-0.61;100.00;98431.81;4468503;32;20108;-74
2023/12/07 04:33:44;;;;;;;9.77;5.37;;;;;;;-0.62;100.00;98440.44;4468737;32;20101;-74
2023/12/07 04:36:12;;;;;;;8.70;3.92;;;;;;;-0.64;100.00;98437.94;4467929;32;20537;-74
2023/12/07 04:38:40;;;;;;;7.75;3.90;;;;;;;-0.59;100.00;98438.56;4468462;32;20104;-74
2023/12/07 04:41:08;;;;;;;5.37;3.25;;;;;;;-0.56;100.00;98441.00;4468674;32;20097;-74
2023/12/07 04:43:36;;;;;;;11.27;4.75;;;;;;;-0.65;100.00;98441.44;4468664;32;20406;-74
2023/12/07 04:46:03;;;;;;;5.25;3.00;;;;;;;-0.61;100.00;98439.53;4468508;32;20131;-74
2023/12/07 04:48:31;;;;;;;5.70;3.28;;;;;;;-0.64;100.00;98448.22;4468407;32;20101;-74
2023/12/07 04:51:00;;;;;;;6.07;3.10;;;;;;;-0.55;100.00;98447.78;4468402;32;21159;-74
2023/12/07 04:53:27;;;;;;;5.55;2.78;;;;;;;-0.52;100.00;98449.38;4468478;32;20109;-74
2023/12/07 04:55:55;;;;;;;4.65;2.78;;;;;;;-0.50;100.00;98457.03;4468495;32;20385;-74
2023/12/07 04:58:24;;;;;;;6.68;3.05;;;;;;;-0.50;100.00;98462.16;4468151;32;20089;-74
2023/12/07 05:00:52;;;;;;;3.83;2.25;;;;;;;-0.51;100.00;98469.06;4468327;32;20140;-74
2023/12/07 05:03:19;;;;;;;3.47;2.42;;;;;;;-0.57;100.00;98459.06;4468041;32;20112;-75
2023/12/07 05:05:49;;;;;;;3.28;1.73;;;;;;;-0.60;100.00;98462.63;4468216;32;20172;-74
2023/12/07 05:08:17;;;;;;;5.00;2.25;;;;;;;-0.49;100.00;98467.25;4467999;32;20128;-75
2023/12/07 05:10:45;;;;;;;4.15;2.55;;;;;;;-0.48;100.00;98463.75;4468167;32;20178;-74
2023/12/07 05:13:13;;;;;;;4.45;2.58;;;;;;;-0.41;100.00;98472.84;4468209;32;20115;-75
2023/12/07 05:15:41;;;;;;;4.28;2.30;;;;;;;-0.48;100.00;98478.38;4468128;32;20142;-74
2023/12/07 05:18:08;;;;;;;5.55;3.15;;;;;;;-0.47;100.00;98474.88;4467874;32;20127;-74
2023/12/07 05:20:38;;;;;;;3.53;2.42;;;;;;;-0.50;100.00;98477.59;4468154;32;20114;-74
2023/12/07 05:23:06;;;;;;;3.90;2.45;;;;;;;-0.56;100.00;98474.44;4453741;32;20127;-75
2023/12/07 05:25:36;;;;;;;5.65;3.12;;;;;;;-0.56;100.00;98479.59;4468012;32;20119;-74
2023/12/07 05:28:04;;;;;;;5.97;2.90;;;;;;;-0.55;100.00;98477.84;4467644;32;20097;-73
2023/12/07 05:30:31;;;;;;;6.05;3.47;;;;;;;-0.49;100.00;98487.00;4468017;32;20791;-74
2023/12/07 05:32:59;;;;;;;5.30;3.00;;;;;;;-0.48;100.00;98491.25;4467940;32;20546;-74
2023/12/07 05:35:26;;;;;;;8.75;4.15;;;;;;;-0.51;100.00;98497.38;4468023;32;20141;-74
2023/12/07 05:37:54;;;;;;;9.52;4.95;;;;;;;-0.51;100.00;98496.53;4467784;32;20114;-74
2023/12/07 05:40:23;;;;;;;10.60;4.43;;;;;;;-0.52;100.00;98498.25;4467733;32;20505;-73
2023/12/07 05:42:51;;;;;;;10.43;4.82;;;;;;;-0.42;100.00;98493.53;4467518;32;20134;-74
2023/12/07 05:45:18;;;;;;;11.77;5.18;;;;;;;-0.38;100.00;98502.75;4467710;32;20088;-74
2023/12/07 05:47:45;;;;;;;10.25;5.35;;;;;;;-0.39;100.00;98498.53;4467888;32;20132;-74
2023/12/07 05:50:14;;;;;;;9.98;4.30;;;;;;;-0.50;100.00;98505.91;4469999;32;20088;-74
2023/12/07 05:52:41;;;;;;;8.57;4.12;;;;;;;-0.44;100.00;98503.91;4469700;32;20167;-74
2023/12/07 05:55:09;;;;;;;10.77;5.10;;;;;;;-0.47;100.00;98505.75;4468763;32;20115;-75
2023/12/07 05:57:37;;;;;;;8.43;4.70;;;;;;;-0.58;100.00;98509.69;4469851;32;20097;-74
2023/12/07 06:00:09;;;;;;;6.90;4.20;;;;;;;-0.51;100.00;98506.84;4469745;32;20160;-74
2023/12/07 06:02:42;;;;;;;8.77;4.12;;;;;;;-0.49;100.00;98507.59;4468822;32;20084;-74
2023/12/07 06:05:10;;;;;;;7.60;4.00;;;;;;;-0.50;100.00;98511.91;4468723;32;20107;-74
2023/12/07 06:07:38;;;;;;;8.45;4.25;;;;;;;-0.56;100.00;98507.87;4469576;32;20965;-75
2023/12/07 06:10:07;;;;;;;9.05;4.72;;;;;;;-0.58;100.00;98512.25;4469806;32;20104;-74
2023/12/07 06:12:35;;;;;;;8.32;3.83;;;;;;;-0.57;100.00;98519.06;4469509;32;20127;-74
2023/12/07 06:15:06;;;;;;;6.55;3.90;;;;;;;-0.51;100.00;98524.84;4469893;32;20514;-74
2023/12/07 06:17:36;;;;;;;6.97;4.37;;;;;;;-0.53;100.00;98527.47;4462051;32;20150;-74
2023/12/07 06:20:05;;;;;;;6.43;4.07;;;;;;;-0.53;100.00;98524.91;4452828;32;20434;-74
2023/12/07 06:22:37;;;;;;;6.55;3.97;;;;;;;-0.58;100.00;98526.88;4452649;32;20466;-74
2023/12/07 06:25:08;;;;;;;8.75;4.57;;;;;;;-0.60;100.00;98524.38;4454062;32;20093;-74
2023/12/07 06:27:35;;;;;;;9.95;5.03;;;;;;;-0.55;100.00;98529.28;4476936;32;20092;-72
2023/12/07 08:38:14;;;;;;;9.65;5.80;;;;;;;-146.19;100.00;62416.87;4481741;31;20118;-74
